EW9515 Weather Reports


Display with metric or nautical units.
time (UTC)temp
F
wind
direction
speed
MPH
gust
MPH
rain 1hr
in
rain 24hr
in
rain mn
in
humidity
%
barometer
mb
20200405094216 71 0.0 0.0 0.00 0.00 0.00 75 1014.6
20200405093217 72 0.0 0.0 0.00 0.00 0.00 75 1014.5
20200405092217 72 158 1.0 2.0 0.00 0.00 0.00 75 1014.4
20200405091217 72 158 1.0 2.0 0.00 0.00 0.00 74 1014.3
20200405090216 73 0.0 2.0 0.00 0.00 0.00 74 1014.1
20200405085218 73 158 3.0 4.0 0.00 0.00 0.00 74 1013.9
20200405084218 73 180 2.0 3.0 0.00 0.00 0.00 73 1013.9
20200405083219 74 158 4.0 6.0 0.00 0.00 0.00 72 1013.7
20200405082219 74 158 2.0 2.0 0.00 0.00 0.00 72 1013.6
20200405081218 74 158 3.0 4.0 0.00 0.00 0.00 72 1013.4
20200405080218 74 158 1.0 3.0 0.00 0.00 0.00 72 1013.1
20200405075218 74 135 3.0 5.0 0.00 0.00 0.00 72 1013.0
20200405074218 75 135 2.0 4.0 0.00 0.00 0.00 71 1012.9
20200405073218 75 135 3.0 4.0 0.00 0.00 0.00 70 1012.9
20200405072218 75 158 2.0 3.0 0.00 0.00 0.00 70 1012.8
20200405071218 76 90 1.0 6.0 0.00 0.00 0.00 68 1012.7
20200405070238 76 135 4.0 5.0 0.00 0.00 0.00 67 1012.6
20200405065537 77 90 6.0 8.0 0.00 0.00 0.00 66 1012.5
20200405064837 77 90 6.0 8.0 0.00 0.00 0.00 64 1012.4
20200405064138 77 135 2.0 3.0 0.00 0.00 0.00 63 1012.3
20200405063817 77 90 3.0 8.0 0.00 0.00 0.00 63 1012.3
20200405062838 78 158 5.0 9.0 0.00 0.00 0.00 62 1012.2
20200405062117 78 135 3.0 4.0 0.00 0.00 0.00 61 1012.1
20200405061116 78 180 3.0 4.0 0.00 0.00 0.00 61 1012.0
20200405060117 79 113 6.0 9.0 0.00 0.00 0.00 59 1011.9
20200405055118 79 68 5.0 8.0 0.00 0.00 0.00 59 1011.9
20200405054117 79 90 6.0 10.0 0.00 0.00 0.00 57 1011.9
20200405053137 79 90 4.0 7.0 0.00 0.00 0.00 56 1011.8
20200405052217 79 45 4.0 7.0 0.00 0.00 0.00 58 1011.7
20200405051217 80 90 5.0 9.0 0.00 0.00 0.00 54 1011.7
20200405050217 80 68 5.0 9.0 0.00 0.00 0.00 55 1011.6
20200405045216 80 158 4.0 8.0 0.00 0.00 0.00 55 1011.7
20200405044217 80 113 7.0 13.0 0.00 0.00 0.00 55 1011.7
20200405043217 80 68 7.0 11.0 0.00 0.00 0.00 55 1011.7
20200405042217 80 45 8.0 10.0 0.00 0.00 0.00 55 1011.8
20200405041217 80 135 5.0 9.0 0.00 0.00 0.00 56 1011.8
20200405040216 80 68 8.0 12.0 0.00 0.00 0.00 56 1011.8
20200405035216 80 158 5.0 11.0 0.00 0.00 0.00 56 1011.9
20200405034217 80 90 5.0 8.0 0.00 0.00 0.00 56 1012.0
20200405033217 81 135 6.0 9.0 0.00 0.00 0.00 53 1012.0
20200405032216 80 68 6.0 14.0 0.00 0.00 0.00 55 1012.0
20200405031217 81 45 6.0 8.0 0.00 0.00 0.00 51 1012.1
20200405030217 82 68 7.0 10.0 0.00 0.00 0.00 48 1012.2
20200405025216 82 90 3.0 4.0 0.00 0.00 0.00 48 1012.2
20200405024217 82 180 3.0 4.0 0.00 0.00 0.00 47 1012.3
20200405023216 82 180 3.0 6.0 0.00 0.00 0.00 49 1012.4
20200405022216 82 180 1.0 2.0 0.00 0.00 0.00 49 1012.6
20200405021216 81 90 3.0 7.0 0.00 0.00 0.00 52 1012.7
20200405020216 81 45 4.0 7.0 0.00 0.00 0.00 52 1012.8
20200405015216 81 135 2.0 5.0 0.00 0.00 0.00 52 1012.9
20200405014217 80 90 4.0 8.0 0.00 0.00 0.00 53 1013.1
20200405013224 80 68 4.0 8.0 0.00 0.00 0.00 53 1013.2
20200405012217 80 45 6.0 10.0 0.00 0.00 0.00 54 1013.3
20200405011217 80 68 4.0 7.0 0.00 0.00 0.00 56 1013.5
20200405010216 80 68 4.0 6.0 0.00 0.00 0.00 55 1013.6
20200405005216 81 68 4.0 7.0 0.00 0.00 0.00 56 1013.6
20200405004217 80 113 3.0 5.0 0.00 0.00 0.00 56 1013.7
20200405003218 80 45 3.0 4.0 0.00 0.00 0.00 57 1013.8
20200405002218 80 23 5.0 7.0 0.00 0.00 0.00 48 1013.8
20200405001219 81 45 2.0 4.0 0.00 0.00 0.00 50 1014.0
20200405000218 81 45 4.0 5.0 0.00 0.00 0.00 51 1014.0
20200404235217 80 23 2.0 4.0 0.00 0.00 0.00 49 1014.0
20200404234217 80 68 3.0 6.0 0.00 0.00 0.00 47 1014.1
20200404233219 80 0.0 0.0 0.00 0.00 0.00 46 1014.1
20200404232219 80 45 2.0 3.0 0.00 0.00 0.00 52 1014.1
20200404231218 79 0.0 2.0 0.00 0.00 0.00 54 1014.1
20200404230218 78 135 1.0 2.0 0.00 0.00 0.00 58 1014.1
20200404225218 77 135 1.0 2.0 0.00 0.00 0.00 61 1014.1
20200404224217 76 135 2.0 3.0 0.00 0.00 0.00 63 1014.0
20200404223218 75 158 1.0 2.0 0.00 0.00 0.00 66 1014.0
20200404222217 74 158 2.0 3.0 0.00 0.00 0.00 71 1013.9
20200404221218 74 158 2.0 3.0 0.00 0.00 0.00 70 1013.9
20200404220218 73 158 2.0 2.0 0.00 0.00 0.00 72 1013.6
20200404215218 72 158 2.0 4.0 0.00 0.00 0.00 73 1013.5
20200404214219 72 0.0 0.0 0.00 0.00 0.00 70 1013.2
20200404213217 70 0.0 0.0 0.00 0.00 0.00 75 1012.9
20200404212239 69 0.0 0.0 0.00 0.00 0.00 85 1012.8
20200404211318 68 0.0 0.0 0.00 0.00 0.00 88 1012.8
20200404210317 67 0.0 0.0 0.00 0.00 0.00 90 1012.6
20200404205317 66 0.0 0.0 0.00 0.00 0.00 91 1012.5
20200404204317 65 0.0 1.0 0.00 0.00 0.00 91 1012.2
20200404203317 65 0.0 0.0 0.00 0.00 0.00 91 1012.0
20200404202317 65 0.0 0.0 0.00 0.00 0.00 90 1011.7
20200404201317 64 0.0 0.0 0.00 0.00 0.00 91 1011.6
20200404200316 64 0.0 0.0 0.00 0.00 0.00 92 1011.4
20200404195316 64 0.0 0.0 0.00 0.00 0.00 93 1011.3
20200404194316 64 0.0 0.0 0.00 0.00 0.00 94 1011.2
20200404193317 65 0.0 0.0 0.00 0.00 0.00 93 1011.1
20200404192316 65 0.0 0.0 0.00 0.00 0.00 93 1010.9
20200404191316 65 0.0 0.0 0.00 0.00 0.00 93 1010.8
20200404190316 65 0.0 0.0 0.00 0.00 0.00 93 1010.8
20200404185316 65 0.0 0.0 0.00 0.00 0.00 93 1010.5
20200404184316 65 0.0 0.0 0.00 0.00 0.00 93 1010.4
20200404183316 66 248 1.0 1.0 0.00 0.00 0.00 92 1010.4
20200404182316 66 0.0 0.0 0.00 0.00 0.00 92 1010.2
20200404181316 66 0.0 0.0 0.00 0.00 0.00 92 1010.0
20200404180316 67 0.0 0.0 0.00 0.00 0.00 92 1009.9
20200404175316 67 0.0 0.0 0.00 0.00 0.00 91 1009.9
20200404174316 67 0.0 0.0 0.00 0.00 0.00 91 1009.6
20200404173316 68 0.0 1.0 0.00 0.00 0.00 91 1009.5
20200404172316 68 0.0 0.0 0.00 0.00 0.00 90 1009.3
20200404171316 69 0.0 0.0 0.00 0.00 0.00 89 1009.3
20200404170316 70 0.0 1.0 0.00 0.00 0.00 88 1009.2
20200404165316 71 0.0 0.0 0.00 0.00 0.00 85 1009.2
20200404164316 71 0.0 0.0 0.00 0.00 0.00 83 1009.1
20200404163316 72 0.0 0.0 0.00 0.00 0.00 82 1009.2
20200404162316 73 0.0 1.0 0.00 0.00 0.00 81 1009.2
20200404161317 73 270 1.0 3.0 0.00 0.00 0.00 81 1009.2
20200404160317 73 225 2.0 5.0 0.00 0.00 0.00 81 1009.3
20200404155318 73 203 2.0 3.0 0.00 0.00 0.00 82 1009.3
20200404154317 72 203 1.0 3.0 0.00 0.00 0.00 86 1009.2
20200404153318 70 203 2.0 4.0 0.00 0.00 0.00 91 1009.3
20200404152318 70 0.0 0.0 0.00 0.00 0.00 92 1009.4
20200404151318 70 0.0 0.0 0.00 0.00 0.00 91 1009.5
20200404150317 70 0.0 1.0 0.00 0.00 0.00 92 1009.6
20200404145318 71 0.0 0.0 0.00 0.00 0.00 92 1009.7
20200404144318 71 0.0 0.0 0.00 0.00 0.00 92 1009.8
20200404143318 71 0.0 0.0 0.00 0.00 0.00 92 1009.8
20200404142318 71 0.0 0.0 0.00 0.00 0.00 92 1009.9
20200404141315 70 0.0 0.0 0.00 0.00 0.00 91 1009.7
20200404140318 71 0.0 0.0 0.00 0.00 0.00 91 1009.9
20200404135316 71 0.0 0.0 0.00 0.00 0.00 90 1010.0
20200404134317 71 0.0 0.0 0.00 0.00 0.00 90 1010.0
20200404133317 72 0.0 0.0 0.00 0.00 0.00 89 1009.9
20200404132318 72 0.0 0.0 0.00 0.00 0.00 88 1009.9
20200404131317 72 0.0 0.0 0.00 0.00 0.00 88 1009.8
20200404130316 73 0.0 0.0 0.00 0.00 0.00 87 1009.7
20200404125316 73 0.0 0.0 0.00 0.00 0.00 87 1009.6
20200404124316 73 0.0 0.0 0.00 0.00 0.00 87 1009.6
20200404123317 73 0.0 0.0 0.00 0.00 0.00 88 1009.5
20200404122316 73 0.0 0.0 0.00 0.00 0.00 88 1009.5
20200404121316 73 0.0 0.0 0.00 0.00 0.00 88 1009.7
20200404120316 74 0.0 0.0 0.00 0.00 0.00 88 1009.8
20200404115317 74 0.0 0.0 0.00 0.00 0.00 88 1009.7
20200404114317 75 0.0 0.0 0.00 0.00 0.00 88 1009.7
20200404113317 75 0.0 0.0 0.00 0.00 0.00 88 1009.6
20200404112316 75 0.0 0.0 0.00 0.00 0.00 87 1009.5
20200404111316 76 0.0 0.0 0.00 0.00 0.00 87 1009.4
20200404110316 76 0.0 0.0 0.00 0.00 0.00 87 1009.4
20200404105316 76 0.0 0.0 0.00 0.00 0.00 87 1009.2
20200404104316 76 0.0 0.0 0.00 0.00 0.00 86 1009.2
20200404103316 77 0.0 0.0 0.00 0.00 0.00 85 1009.1
20200404102316 77 0.0 0.0 0.00 0.00 0.00 85 1008.9
20200404101316 77 0.0 0.0 0.00 0.00 0.00 86 1008.9
20200404100316 77 0.0 0.0 0.00 0.00 0.00 86 1008.8
20200404095316 78 0.0 0.0 0.00 0.00 0.00 87 1008.7